createdAt,value
2022-10-18T00:00:53.579Z,10.33
2022-10-18T00:03:21.985Z,10.28
2022-10-18T00:05:50.340Z,10.21
2022-10-18T00:08:18.981Z,10.38
2022-10-18T00:10:47.269Z,10.42
2022-10-18T00:13:14.971Z,10.23
2022-10-18T00:16:14.780Z,10.34
2022-10-18T00:18:43.472Z,9.67
2022-10-18T00:21:16.747Z,9.92
2022-10-18T00:23:45.844Z,9.48
2022-10-18T00:26:24.837Z,10.31
2022-10-18T00:29:00.863Z,10.20
2022-10-18T00:31:31.378Z,10.15
2022-10-18T00:34:01.967Z,10.07
2022-10-18T00:36:32.240Z,9.96
2022-10-18T00:39:01.254Z,10.10
2022-10-18T00:41:31.471Z,10.54
2022-10-18T00:44:06.491Z,10.58
2022-10-18T00:46:36.519Z,10.48
2022-10-18T00:49:12.031Z,10.23
2022-10-18T00:51:45.537Z,10.47
2022-10-18T00:54:14.251Z,10.53
2022-10-18T00:56:44.956Z,10.22
2022-10-18T00:59:14.661Z,9.92
2022-10-18T01:01:43.098Z,10.28
2022-10-18T01:04:11.938Z,10.10
2022-10-18T01:06:53.014Z,10.07
2022-10-18T01:09:25.629Z,9.99
2022-10-18T01:12:21.000Z,9.78
2022-10-18T01:15:04.460Z,10.00
2022-10-18T01:17:38.939Z,9.06
2022-10-18T01:20:37.520Z,9.60
2022-10-18T01:23:05.236Z,10.26
2022-10-18T01:26:02.670Z,10.28
2022-10-18T01:28:53.216Z,10.33
2022-10-18T01:31:26.599Z,10.02
2022-10-18T01:33:58.977Z,9.94
2022-10-18T01:36:34.419Z,9.57
2022-10-18T01:39:08.060Z,9.94
2022-10-18T01:41:37.510Z,10.11
2022-10-18T01:44:07.600Z,9.58
2022-10-18T01:46:36.328Z,9.34
2022-10-18T01:49:04.713Z,9.39
2022-10-18T01:51:33.480Z,9.70
2022-10-18T01:54:01.509Z,10.24
2022-10-18T01:56:39.388Z,10.22
2022-10-18T01:59:44.858Z,10.19
2022-10-18T02:02:39.402Z,9.83
2022-10-18T02:05:10.499Z,9.96
2022-10-18T02:07:41.011Z,9.61
2022-10-18T02:12:48.508Z,9.87
2022-10-18T02:15:21.778Z,10.09
2022-10-18T02:17:50.750Z,9.88
2022-10-18T02:20:21.700Z,9.87
2022-10-18T02:22:51.418Z,9.99
2022-10-18T02:25:25.250Z,9.60
2022-10-18T02:27:55.715Z,9.62
2022-10-18T02:30:47.040Z,10.06
2022-10-18T02:33:23.188Z,10.09
2022-10-18T02:35:52.449Z,10.31
2022-10-18T02:38:20.799Z,10.46
2022-10-18T02:40:48.605Z,9.94
2022-10-18T02:43:16.898Z,10.09
2022-10-18T02:45:44.659Z,10.31
2022-10-18T02:48:12.479Z,9.84
2022-10-18T02:50:40.549Z,10.42
2022-10-18T02:53:08.358Z,9.57
2022-10-18T02:55:36.261Z,9.32
2022-10-18T02:58:04.397Z,9.97
2022-10-18T03:00:32.266Z,10.32
2022-10-18T03:03:00.133Z,9.98
2022-10-18T03:05:28.277Z,9.50
2022-10-18T03:07:59.208Z,9.96
2022-10-18T03:10:27.011Z,10.02
2022-10-18T03:12:55.128Z,9.07
2022-10-18T03:15:22.940Z,9.09
2022-10-18T03:17:50.698Z,8.84
2022-10-18T03:20:19.962Z,9.22
2022-10-18T03:22:47.679Z,9.84
2022-10-18T03:25:15.533Z,10.00
2022-10-18T03:27:44.889Z,9.82
2022-10-18T03:30:13.651Z,9.31
2022-10-18T03:32:41.446Z,9.21
2022-10-18T03:35:09.951Z,8.64
2022-10-18T03:37:38.208Z,9.56
2022-10-18T03:40:06.796Z,9.58
2022-10-18T03:42:35.212Z,9.44
2022-10-18T03:45:03.132Z,9.14
2022-10-18T03:47:31.199Z,9.14
2022-10-18T03:49:59.331Z,8.96
2022-10-18T03:52:29.002Z,9.62
2022-10-18T03:54:56.986Z,8.92
2022-10-18T03:57:25.252Z,9.19
2022-10-18T03:59:53.111Z,9.48
2022-10-18T04:02:20.963Z,9.86
2022-10-18T04:04:49.688Z,9.88
2022-10-18T04:07:17.513Z,9.60
2022-10-18T04:09:45.262Z,9.62
2022-10-18T04:12:13.530Z,9.71
2022-10-18T04:14:41.258Z,9.44
2022-10-18T04:17:09.340Z,9.56
2022-10-18T04:19:37.540Z,9.39
2022-10-18T04:22:05.359Z,9.33
2022-10-18T04:24:33.211Z,9.38
2022-10-18T04:27:01.379Z,9.10
2022-10-18T04:29:29.109Z,8.93
2022-10-18T04:31:57.001Z,9.32
2022-10-18T04:34:25.089Z,9.65
2022-10-18T04:36:52.967Z,9.80
2022-10-18T04:39:20.809Z,9.15
2022-10-18T04:41:48.950Z,9.56
2022-10-18T04:44:16.867Z,8.87
2022-10-18T04:46:44.640Z,9.35
2022-10-18T04:49:12.649Z,9.42
2022-10-18T04:51:40.647Z,9.27
2022-10-18T04:54:08.427Z,8.89
2022-10-18T04:56:36.550Z,9.41
2022-10-18T04:59:04.485Z,9.58
2022-10-18T05:01:32.431Z,9.06
2022-10-18T05:04:00.694Z,9.40
2022-10-18T05:06:28.470Z,9.07
2022-10-18T05:08:56.378Z,8.82
2022-10-18T05:11:24.551Z,8.88
2022-10-18T05:13:52.536Z,9.26
2022-10-18T05:16:20.375Z,9.69
2022-10-18T05:18:48.596Z,9.32
2022-10-18T05:21:16.899Z,8.99
2022-10-18T05:23:44.609Z,9.68
2022-10-18T05:26:12.690Z,10.14
2022-10-18T05:28:41.492Z,10.05
2022-10-18T05:31:11.660Z,9.74
2022-10-18T05:33:39.866Z,9.87
2022-10-18T05:36:07.988Z,9.63
2022-10-18T05:38:38.984Z,9.18
2022-10-18T05:41:07.618Z,9.39
2022-10-18T05:43:35.424Z,9.37
2022-10-18T05:46:04.971Z,9.02
2022-10-18T05:48:33.573Z,9.09
2022-10-18T05:51:01.837Z,9.32
2022-10-18T05:53:36.641Z,9.92
2022-10-18T05:56:06.548Z,9.78
2022-10-18T05:58:34.871Z,10.04
2022-10-18T06:01:03.958Z,10.30
2022-10-18T06:03:32.670Z,10.80
2022-10-18T06:06:04.456Z,11.80
2022-10-18T06:08:32.923Z,13.42
2022-10-18T06:11:00.880Z,13.70
2022-10-18T06:13:31.130Z,13.58
2022-10-18T06:16:00.900Z,13.23
2022-10-18T06:18:30.420Z,12.97
2022-10-18T06:20:59.871Z,13.03
2022-10-18T06:23:28.752Z,12.92
2022-10-18T06:26:04.682Z,12.92
2022-10-18T06:28:35.289Z,13.21
2022-10-18T06:31:04.043Z,13.33
2022-10-18T06:33:33.622Z,13.51
2022-10-18T06:36:06.491Z,13.56
2022-10-18T06:38:35.537Z,13.86
2022-10-18T06:41:06.245Z,13.70
2022-10-18T06:43:35.763Z,13.93
2022-10-18T06:46:06.891Z,14.08
2022-10-18T06:48:39.153Z,14.35
2022-10-18T06:51:08.501Z,14.17
2022-10-18T06:53:44.073Z,14.52
2022-10-18T06:56:17.769Z,14.40
2022-10-18T06:58:46.265Z,14.29
2022-10-18T07:01:16.494Z,14.49
2022-10-18T07:03:46.072Z,14.56
2022-10-18T07:06:16.703Z,14.56
2022-10-18T07:08:45.089Z,15.09
2022-10-18T07:11:16.823Z,14.86
2022-10-18T07:13:45.030Z,15.41
2022-10-18T07:16:18.382Z,15.39
2022-10-18T07:18:50.020Z,15.43
2022-10-18T07:21:27.402Z,15.46
2022-10-18T07:23:57.431Z,15.77
2022-10-18T07:26:29.256Z,15.77
2022-10-18T07:29:02.115Z,15.92
2022-10-18T07:31:30.478Z,16.18
2022-10-18T07:33:58.820Z,16.08
2022-10-18T07:36:27.770Z,16.49
2022-10-18T07:38:56.960Z,16.72
2022-10-18T07:41:29.381Z,16.65
2022-10-18T07:43:58.081Z,16.78
2022-10-18T07:46:26.772Z,17.42
2022-10-18T07:48:55.307Z,17.24
2022-10-18T07:51:24.819Z,17.32
2022-10-18T07:53:55.180Z,17.63
2022-10-18T07:56:25.421Z,17.98
2022-10-18T07:58:58.339Z,18.77
2022-10-18T08:01:27.018Z,18.24
2022-10-18T08:03:55.365Z,18.21
2022-10-18T08:06:24.481Z,18.71
2022-10-18T08:08:52.778Z,19.19
2022-10-18T08:11:23.612Z,19.04
2022-10-18T08:13:52.891Z,19.49
2022-10-18T08:16:29.238Z,19.29
2022-10-18T08:18:58.600Z,19.54
2022-10-18T08:21:27.041Z,19.95
2022-10-18T08:23:55.282Z,20.32
2022-10-18T08:26:25.180Z,20.55
2022-10-18T08:28:58.227Z,21.16
2022-10-18T08:31:37.948Z,21.16
2022-10-18T08:34:06.261Z,21.80
2022-10-18T08:36:34.567Z,21.85
2022-10-18T08:39:03.902Z,22.34
2022-10-18T08:41:38.076Z,22.77
2022-10-18T08:44:16.636Z,23.10
2022-10-18T08:46:49.100Z,23.17
2022-10-18T08:49:38.368Z,23.29
2022-10-18T08:52:33.159Z,24.13
2022-10-18T08:55:03.199Z,23.80
2022-10-18T08:57:32.367Z,23.96
2022-10-18T09:00:03.027Z,24.81
2022-10-18T09:02:42.366Z,24.74
2022-10-18T09:05:29.050Z,25.34
2022-10-18T09:08:17.063Z,26.33
2022-10-18T09:11:30.879Z,25.88
2022-10-18T09:14:09.574Z,25.82
2022-10-18T09:17:15.928Z,26.64
2022-10-18T09:19:57.839Z,26.54
2022-10-18T09:22:43.974Z,26.80
2022-10-18T09:25:49.954Z,27.55
2022-10-18T09:28:36.834Z,26.98
2022-10-18T09:31:06.789Z,27.10
2022-10-18T09:33:43.058Z,26.73
2022-10-18T09:36:17.331Z,27.02
2022-10-18T09:38:49.811Z,27.60
2022-10-18T09:41:41.504Z,27.79
2022-10-18T09:44:10.300Z,27.32
2022-10-18T09:46:42.482Z,27.89
2022-10-18T09:49:27.213Z,27.10
2022-10-18T09:52:10.749Z,27.62
2022-10-18T09:54:59.293Z,27.66
2022-10-18T09:57:31.782Z,27.65
2022-10-18T10:00:00.879Z,27.40
2022-10-18T10:02:29.536Z,28.38
2022-10-18T10:04:57.898Z,27.13
2022-10-18T10:07:35.387Z,27.21
2022-10-18T10:10:34.151Z,27.21
2022-10-18T10:13:23.303Z,26.48
2022-10-18T10:15:57.651Z,26.99
2022-10-18T10:18:36.290Z,26.92
2022-10-18T10:21:06.511Z,27.16
2022-10-18T10:23:39.080Z,27.37
2022-10-18T10:26:21.041Z,26.80
2022-10-18T10:28:49.221Z,27.42
2022-10-18T10:31:19.021Z,27.08
2022-10-18T10:33:47.942Z,26.62
2022-10-18T10:36:20.743Z,27.06
2022-10-18T10:39:10.011Z,26.63
2022-10-18T10:41:39.050Z,26.87
2022-10-18T10:44:16.782Z,26.47
2022-10-18T10:46:44.814Z,27.08
2022-10-18T10:49:41.035Z,27.39
2022-10-18T10:52:28.631Z,27.94
2022-10-18T10:55:11.397Z,27.08
2022-10-18T10:57:50.731Z,26.33
2022-10-18T11:00:34.440Z,25.74
2022-10-18T11:03:28.437Z,25.56
2022-10-18T11:06:01.024Z,26.47
2022-10-18T11:08:36.730Z,27.83
2022-10-18T11:11:28.004Z,28.18
2022-10-18T11:14:24.753Z,28.44
2022-10-18T11:17:13.357Z,27.66
2022-10-18T11:20:06.707Z,28.09
2022-10-18T11:22:40.331Z,27.71
2022-10-18T11:25:14.769Z,28.07
2022-10-18T11:28:00.841Z,28.47
2022-10-18T11:30:34.481Z,28.52
2022-10-18T11:34:03.661Z,29.25
2022-10-18T11:36:36.484Z,29.07
2022-10-18T11:39:32.979Z,28.67
2022-10-18T11:42:08.814Z,28.60
2022-10-18T11:44:45.580Z,28.33
2022-10-18T11:47:52.273Z,27.83
2022-10-18T11:50:26.888Z,26.75
2022-10-18T11:53:03.722Z,25.09
2022-10-18T11:55:39.773Z,24.93
2022-10-18T11:58:19.809Z,24.55
2022-10-18T12:00:59.352Z,25.00
2022-10-18T12:03:35.125Z,25.19
2022-10-18T12:06:12.800Z,24.50
2022-10-18T12:08:54.350Z,23.98
2022-10-18T12:11:29.790Z,23.83
2022-10-18T12:14:01.561Z,24.17
2022-10-18T12:16:50.593Z,24.01
2022-10-18T12:19:27.296Z,23.67
2022-10-18T12:22:16.823Z,23.78
2022-10-18T12:24:44.972Z,23.45
2022-10-18T12:27:15.531Z,23.04
2022-10-18T12:30:07.661Z,23.15
2022-10-18T12:32:37.117Z,23.09
2022-10-18T12:35:09.722Z,22.62
2022-10-18T12:37:48.879Z,22.50
2022-10-18T12:40:36.676Z,22.66
2022-10-18T12:43:10.590Z,22.64
2022-10-18T12:45:56.443Z,22.56
2022-10-18T12:48:39.742Z,22.66
2022-10-18T12:51:20.775Z,23.02
2022-10-18T12:54:02.980Z,22.81
2022-10-18T12:56:34.779Z,22.89
2022-10-18T12:59:15.400Z,23.24
2022-10-18T13:01:52.511Z,23.08
2022-10-18T13:04:41.062Z,22.67
2022-10-18T13:07:09.049Z,22.89
2022-10-18T13:09:40.890Z,22.75
2022-10-18T13:12:13.159Z,22.85
2022-10-18T13:15:20.512Z,22.74
2022-10-18T13:18:11.023Z,23.43
2022-10-18T13:20:56.923Z,23.33
2022-10-18T13:23:40.060Z,23.46
2022-10-18T13:26:25.511Z,23.19
2022-10-18T13:29:02.543Z,23.33
2022-10-18T13:31:40.289Z,23.46
2022-10-18T13:34:31.211Z,23.38
2022-10-18T13:37:19.401Z,23.37
2022-10-18T13:39:48.041Z,23.17
2022-10-18T13:42:16.210Z,22.87
2022-10-18T13:44:45.025Z,23.34
2022-10-18T13:47:15.451Z,23.42
2022-10-18T13:49:59.308Z,23.02
2022-10-18T13:52:42.831Z,23.25
2022-10-18T13:55:30.914Z,23.40
2022-10-18T13:58:35.805Z,23.18
2022-10-18T14:01:15.498Z,23.47
2022-10-18T14:03:58.712Z,23.32
2022-10-18T14:06:42.861Z,22.74
2022-10-18T14:12:17.621Z,22.57
2022-10-18T14:14:54.119Z,22.65
2022-10-18T14:17:24.738Z,22.15
2022-10-18T14:19:58.065Z,22.07
2022-10-18T14:23:04.712Z,22.37
2022-10-18T14:25:37.820Z,22.18
2022-10-18T14:28:19.862Z,22.43
2022-10-18T14:30:53.649Z,21.93
2022-10-18T14:33:28.991Z,22.48
2022-10-18T14:36:04.391Z,22.05
2022-10-18T14:38:32.890Z,21.76
2022-10-18T14:41:21.282Z,21.20
2022-10-18T14:43:49.868Z,21.31
2022-10-18T14:46:23.991Z,21.26
2022-10-18T14:48:57.301Z,21.11
2022-10-18T14:51:26.936Z,21.05
2022-10-18T14:53:55.487Z,20.98
2022-10-18T14:56:27.230Z,20.85
2022-10-18T14:58:57.053Z,20.52
2022-10-18T15:01:28.415Z,20.13
2022-10-18T15:03:58.761Z,19.75
2022-10-18T15:06:27.350Z,19.89
2022-10-18T15:08:57.890Z,19.80
2022-10-18T15:11:26.935Z,19.45
2022-10-18T15:13:57.740Z,20.02
2022-10-18T15:16:28.493Z,19.23
2022-10-18T15:19:31.879Z,18.96
2022-10-18T15:22:31.224Z,19.49
2022-10-18T15:25:34.692Z,19.26
2022-10-18T15:28:03.199Z,17.84
2022-10-18T15:30:39.486Z,17.31
2022-10-18T15:33:10.003Z,17.73
2022-10-18T15:35:39.130Z,18.13
2022-10-18T15:38:15.881Z,17.71
2022-10-18T15:40:44.058Z,17.03
2022-10-18T15:43:24.481Z,15.81
2022-10-18T15:46:00.283Z,16.37
2022-10-18T15:48:41.861Z,16.52
2022-10-18T15:51:38.154Z,15.73
2022-10-18T15:54:07.613Z,15.69
2022-10-18T15:56:36.682Z,15.02
2022-10-18T15:59:07.185Z,14.43
2022-10-18T16:01:37.744Z,14.58
2022-10-18T16:04:14.520Z,15.23
2022-10-18T16:06:42.320Z,15.25
2022-10-18T16:09:13.516Z,15.45
2022-10-18T16:11:41.510Z,14.49
2022-10-18T16:14:09.565Z,13.12
2022-10-18T16:16:39.053Z,13.41
2022-10-18T16:19:07.698Z,14.33
2022-10-18T16:21:38.551Z,14.18
2022-10-18T16:24:07.846Z,13.08
2022-10-18T16:26:36.308Z,13.37
2022-10-18T16:29:04.768Z,13.88
2022-10-18T16:31:34.310Z,13.95
2022-10-18T16:34:02.891Z,13.40
2022-10-18T16:36:33.421Z,13.56
2022-10-18T16:39:03.767Z,13.29
2022-10-18T16:41:31.614Z,13.28
2022-10-18T16:43:59.839Z,12.48
2022-10-18T16:46:31.980Z,12.18
2022-10-18T16:49:00.771Z,12.72
2022-10-18T16:51:29.493Z,12.38
2022-10-18T16:53:57.428Z,12.51
2022-10-18T16:56:31.119Z,12.29
2022-10-18T16:59:00.182Z,12.46
2022-10-18T17:01:28.076Z,12.26
2022-10-18T17:03:56.152Z,12.22
2022-10-18T17:06:27.151Z,12.42
2022-10-18T17:08:57.301Z,12.39
2022-10-18T17:11:27.971Z,12.22
2022-10-18T17:13:56.890Z,11.62
2022-10-18T17:19:02.829Z,12.00
2022-10-18T17:21:31.819Z,12.28
2022-10-18T17:24:03.748Z,11.89
2022-10-18T17:26:32.448Z,12.47
2022-10-18T17:29:03.943Z,11.77
2022-10-18T17:31:32.827Z,12.61
2022-10-18T17:34:02.220Z,12.50
2022-10-18T17:36:32.592Z,12.19
2022-10-18T17:39:01.562Z,11.90
2022-10-18T17:41:30.301Z,11.95
2022-10-18T17:44:02.189Z,11.87
2022-10-18T17:46:30.370Z,11.83
2022-10-18T17:49:01.850Z,11.78
2022-10-18T17:51:30.488Z,11.41
2022-10-18T17:53:58.567Z,10.80
2022-10-18T17:56:31.366Z,11.19
2022-10-18T17:59:06.450Z,11.80
2022-10-18T18:01:35.671Z,11.64
2022-10-18T18:04:05.443Z,11.67
2022-10-18T18:06:35.964Z,12.02
2022-10-18T18:09:13.119Z,11.89
2022-10-18T18:11:52.559Z,10.74
2022-10-18T18:14:30.328Z,10.82
2022-10-18T18:17:01.791Z,11.16
2022-10-18T18:19:31.141Z,11.69
2022-10-18T18:21:59.665Z,11.50
2022-10-18T18:24:28.400Z,11.73
2022-10-18T18:26:57.698Z,11.67
2022-10-18T18:29:28.986Z,11.49
2022-10-18T18:31:59.521Z,11.32
2022-10-18T18:34:28.163Z,11.45
2022-10-18T18:36:58.380Z,11.43
2022-10-18T18:39:30.512Z,10.99
2022-10-18T18:41:58.790Z,11.13
2022-10-18T18:44:27.082Z,11.50
2022-10-18T18:46:55.393Z,11.41
2022-10-18T18:49:24.362Z,11.31
2022-10-18T18:51:53.190Z,11.09
2022-10-18T18:54:22.392Z,11.00
2022-10-18T18:56:51.412Z,11.13
2022-10-18T18:59:20.442Z,11.13
2022-10-18T19:01:50.230Z,11.01
2022-10-18T19:04:18.769Z,11.11
2022-10-18T19:06:47.200Z,10.93
2022-10-18T19:09:25.782Z,10.09
2022-10-18T19:11:56.237Z,10.92
2022-10-18T19:14:25.884Z,11.11
2022-10-18T19:16:57.944Z,10.92
2022-10-18T19:19:29.308Z,11.05
2022-10-18T19:22:00.130Z,10.99
2022-10-18T19:24:30.454Z,10.68
2022-10-18T19:27:05.898Z,10.12
2022-10-18T19:29:37.850Z,10.49
2022-10-18T19:32:08.765Z,10.63
2022-10-18T19:34:38.651Z,10.59
2022-10-18T19:37:07.380Z,10.43
2022-10-18T19:39:35.901Z,10.49
2022-10-18T19:42:07.091Z,10.52
2022-10-18T19:44:36.659Z,10.43
2022-10-18T19:47:06.330Z,10.57
2022-10-18T19:49:34.377Z,10.53
2022-10-18T19:52:02.800Z,10.10
2022-10-18T19:54:30.723Z,10.35
2022-10-18T19:56:58.741Z,10.75
2022-10-18T19:59:27.282Z,10.48
2022-10-18T20:01:55.362Z,10.62
2022-10-18T20:04:23.432Z,10.66
2022-10-18T20:06:51.341Z,10.37
2022-10-18T20:09:21.510Z,10.42
2022-10-18T20:11:49.740Z,10.17
2022-10-18T20:14:17.569Z,10.26
2022-10-18T20:16:45.382Z,10.25
2022-10-18T20:19:13.581Z,10.12
2022-10-18T20:21:41.572Z,10.17
2022-10-18T20:24:09.698Z,10.45
2022-10-18T20:26:37.930Z,10.45
2022-10-18T20:29:07.818Z,10.35
2022-10-18T20:31:38.644Z,10.31
2022-10-18T20:34:10.379Z,10.33
2022-10-18T20:36:38.451Z,10.11
2022-10-18T20:39:07.379Z,10.28
2022-10-18T20:41:41.217Z,10.17
2022-10-18T20:44:13.576Z,10.18
2022-10-18T20:46:41.630Z,10.00
2022-10-18T20:49:12.656Z,9.92
2022-10-18T20:51:40.798Z,9.55
2022-10-18T20:54:10.119Z,9.78
2022-10-18T20:56:39.213Z,10.19
2022-10-18T20:59:10.044Z,10.38
2022-10-18T21:01:39.169Z,10.30
2022-10-18T21:04:09.809Z,10.24
2022-10-18T21:06:42.699Z,10.14
2022-10-18T21:09:19.553Z,10.15
2022-10-18T21:11:50.009Z,10.13
2022-10-18T21:14:19.721Z,10.34
2022-10-18T21:16:48.488Z,9.91
2022-10-18T21:19:19.921Z,9.88
2022-10-18T21:21:50.648Z,10.12
2022-10-18T21:24:19.860Z,10.37
2022-10-18T21:26:48.208Z,10.34
2022-10-18T21:29:21.604Z,9.94
2022-10-18T21:31:50.040Z,10.15
2022-10-18T21:34:18.209Z,10.14
2022-10-18T21:36:47.450Z,9.93
2022-10-18T21:39:25.520Z,9.94
2022-10-18T21:41:53.799Z,9.86
2022-10-18T21:44:21.918Z,10.15
2022-10-18T21:46:50.000Z,9.45
2022-10-18T21:49:18.263Z,9.50
2022-10-18T21:51:46.150Z,10.07
2022-10-18T21:54:16.257Z,9.79
2022-10-18T21:56:45.422Z,10.24
2022-10-18T21:59:13.722Z,10.36
2022-10-18T22:01:42.924Z,10.44
2022-10-18T22:04:24.649Z,10.45
2022-10-18T22:06:52.551Z,10.29
2022-10-18T22:09:21.629Z,10.11
2022-10-18T22:11:52.348Z,10.26
2022-10-18T22:14:21.280Z,10.51
2022-10-18T22:16:49.500Z,10.70
2022-10-18T22:19:17.431Z,10.66
2022-10-18T22:21:45.732Z,10.67
2022-10-18T22:24:13.870Z,10.62
2022-10-18T22:26:43.068Z,10.17
2022-10-18T22:29:18.164Z,10.68
2022-10-18T22:31:49.330Z,11.05
2022-10-18T22:34:20.029Z,11.17
2022-10-18T22:36:48.050Z,11.05
2022-10-18T22:39:17.070Z,11.05
2022-10-18T22:41:46.623Z,11.36
2022-10-18T22:44:15.178Z,11.44
2022-10-18T22:46:43.278Z,11.39
2022-10-18T22:49:12.048Z,11.26
2022-10-18T22:51:40.611Z,11.60
2022-10-18T22:54:08.966Z,11.09
2022-10-18T22:56:37.310Z,11.09
2022-10-18T22:59:05.146Z,10.93
2022-10-18T23:01:33.053Z,11.14
2022-10-18T23:04:01.965Z,10.98
2022-10-18T23:06:33.012Z,11.49
2022-10-18T23:09:05.112Z,11.55
2022-10-18T23:11:34.089Z,11.41
2022-10-18T23:14:03.946Z,11.89
2022-10-18T23:16:31.838Z,12.53
2022-10-18T23:18:59.885Z,12.60
2022-10-18T23:21:28.780Z,12.63
2022-10-18T23:23:57.416Z,12.42
2022-10-18T23:26:26.953Z,12.38
2022-10-18T23:28:55.741Z,12.70
2022-10-18T23:31:26.344Z,12.62
2022-10-18T23:33:56.588Z,12.48
2022-10-18T23:36:25.534Z,12.22
2022-10-18T23:38:53.847Z,12.62
2022-10-18T23:41:21.859Z,12.24
2022-10-18T23:43:50.269Z,12.13
2022-10-18T23:46:18.658Z,12.41
2022-10-18T23:48:47.082Z,12.22
2022-10-18T23:51:16.249Z,12.45
2022-10-18T23:53:44.520Z,11.97
2022-10-18T23:56:14.433Z,12.14
2022-10-18T23:58:43.990Z,12.15
